createdAt,value
2024-01-25T06:02:20.775Z,530.00
2024-01-25T06:02:58.212Z,528.00
2024-01-25T06:03:58.375Z,525.00
2024-01-25T06:04:58.292Z,524.00
2024-01-25T06:05:58.306Z,522.00
2024-01-25T06:06:58.371Z,522.00
2024-01-25T06:07:58.405Z,522.00
2024-01-25T06:09:06.542Z,520.00
2024-01-25T06:09:59.243Z,519.00
2024-01-25T06:10:58.198Z,519.00
2024-01-25T06:11:58.197Z,517.00
2024-01-25T06:12:58.293Z,519.00
2024-01-25T06:13:58.344Z,519.00
2024-01-25T06:14:58.245Z,518.00
2024-01-25T06:15:58.265Z,519.00
2024-01-25T06:16:58.231Z,514.00
2024-01-25T06:17:58.285Z,510.00
2024-01-25T06:18:58.359Z,497.00
2024-01-25T06:19:58.324Z,492.00
2024-01-25T06:20:58.226Z,495.00
2024-01-25T06:21:58.268Z,495.00
2024-01-25T06:22:58.245Z,496.00
2024-01-25T06:23:58.241Z,499.00
2024-01-25T06:24:58.349Z,502.00
2024-01-25T06:25:58.288Z,505.00
2024-01-25T06:26:58.386Z,506.00
2024-01-25T06:27:58.516Z,506.00
2024-01-25T06:28:58.472Z,509.00
2024-01-25T06:29:58.519Z,510.00
2024-01-25T06:30:58.682Z,512.00
2024-01-25T06:31:58.610Z,515.00
2024-01-25T06:32:58.823Z,516.00
2024-01-25T06:33:58.912Z,516.00
2024-01-25T06:34:58.933Z,518.00
2024-01-25T06:35:58.738Z,519.00
2024-01-25T06:36:58.794Z,525.00
2024-01-25T06:37:58.808Z,529.00
2024-01-25T06:38:58.843Z,527.00
2024-01-25T06:39:58.894Z,523.00
2024-01-25T06:40:58.828Z,523.00
2024-01-25T06:41:58.872Z,529.00
2024-01-25T06:42:58.880Z,529.00
2024-01-25T06:43:58.869Z,526.00
2024-01-25T06:44:58.887Z,527.00
2024-01-25T06:45:58.900Z,529.00
2024-01-25T06:46:58.900Z,528.00
2024-01-25T06:47:58.941Z,532.00
2024-01-25T06:48:59.020Z,535.00
2024-01-25T06:49:58.949Z,534.00
2024-01-25T06:50:58.942Z,535.00
2024-01-25T06:51:58.972Z,541.00
2024-01-25T06:52:58.934Z,547.00
2024-01-25T06:53:58.944Z,546.00
2024-01-25T06:54:58.976Z,552.00
2024-01-25T06:55:58.953Z,556.00
2024-01-25T06:56:58.973Z,561.00
2024-01-25T06:57:59.037Z,565.00
2024-01-25T06:58:59.031Z,567.00
2024-01-25T06:59:59.066Z,573.00
2024-01-25T07:00:59.359Z,583.00
2024-01-25T07:01:59.303Z,591.00
2024-01-25T07:03:00.255Z,603.00
2024-01-25T07:03:59.431Z,612.00
2024-01-25T07:04:59.560Z,623.00
2024-01-25T07:05:59.481Z,629.00
2024-01-25T07:06:59.606Z,631.00
2024-01-25T07:07:59.597Z,632.00
2024-01-25T07:08:59.592Z,648.00
2024-01-25T07:09:59.722Z,663.00
2024-01-25T07:10:59.745Z,666.00
2024-01-25T07:11:59.800Z,663.00
2024-01-25T07:12:59.879Z,663.00
2024-01-25T07:13:59.916Z,675.00
2024-01-25T07:14:59.938Z,707.00
2024-01-25T07:16:00.030Z,728.00
2024-01-25T07:17:00.003Z,741.00
2024-01-25T07:18:00.111Z,746.00
2024-01-25T07:19:00.255Z,756.00
2024-01-25T07:20:00.283Z,763.00
2024-01-25T07:21:00.183Z,771.00
2024-01-25T07:22:00.282Z,761.00
2024-01-25T07:23:00.250Z,755.00
2024-01-25T07:24:00.247Z,762.00
2024-01-25T07:25:00.393Z,768.00
2024-01-25T07:26:00.281Z,765.00
2024-01-25T07:27:00.418Z,766.00
2024-01-25T07:28:00.556Z,762.00
2024-01-25T07:29:00.347Z,770.00
2024-01-25T07:30:00.350Z,828.00
2024-01-25T07:31:00.403Z,845.00
2024-01-25T07:32:00.371Z,833.00
2024-01-25T07:33:00.419Z,823.00
2024-01-25T07:34:00.525Z,812.00
2024-01-25T07:35:00.708Z,814.00
2024-01-25T07:36:00.435Z,823.00
2024-01-25T07:37:00.534Z,820.00
2024-01-25T07:38:00.481Z,827.00
2024-01-25T07:39:00.581Z,829.00
2024-01-25T07:40:00.598Z,827.00
2024-01-25T07:41:00.540Z,825.00
2024-01-25T07:42:00.537Z,834.00
2024-01-25T07:43:00.604Z,844.00
2024-01-25T07:44:00.554Z,774.00
2024-01-25T07:45:00.628Z,690.00
2024-01-25T07:46:00.681Z,664.00
2024-01-25T07:47:00.672Z,654.00
2024-01-25T07:48:09.139Z,652.00
2024-01-25T07:49:01.839Z,654.00
2024-01-25T07:50:00.841Z,657.00
2024-01-25T07:51:00.928Z,655.00
2024-01-25T07:52:00.778Z,653.00
2024-01-25T07:53:00.665Z,666.00
2024-01-25T07:54:00.667Z,723.00
2024-01-25T07:55:02.088Z,693.00
2024-01-25T07:56:00.689Z,666.00
2024-01-25T07:57:00.736Z,656.00
2024-01-25T07:58:00.738Z,647.00
2024-01-25T07:59:00.688Z,653.00
2024-01-25T08:00:00.727Z,658.00
2024-01-25T08:01:00.748Z,654.00
2024-01-25T08:02:00.909Z,653.00
2024-01-25T08:03:00.721Z,648.00
2024-01-25T08:04:00.737Z,654.00
2024-01-25T08:05:00.810Z,703.00
2024-01-25T08:06:01.639Z,653.00
2024-01-25T08:07:00.869Z,654.00
2024-01-25T08:08:00.940Z,647.00
2024-01-25T08:09:00.917Z,668.00
2024-01-25T08:10:01.039Z,682.00
2024-01-25T08:11:00.970Z,692.00
2024-01-25T08:12:01.018Z,699.00
2024-01-25T08:13:06.877Z,705.00
2024-01-25T08:14:02.152Z,708.00
2024-01-25T08:15:01.125Z,710.00
2024-01-25T08:16:01.145Z,714.00
2024-01-25T08:17:01.139Z,717.00
2024-01-25T08:18:01.273Z,713.00
2024-01-25T08:19:01.367Z,710.00
2024-01-25T08:20:01.170Z,706.00
2024-01-25T08:21:01.200Z,705.00
2024-01-25T08:22:01.075Z,701.00
2024-01-25T08:23:01.098Z,696.00
2024-01-25T08:24:01.109Z,690.00
2024-01-25T08:25:01.192Z,684.00
2024-01-25T08:26:01.140Z,677.00
2024-01-25T08:27:01.077Z,671.00
2024-01-25T08:28:01.290Z,667.00
2024-01-25T08:29:01.091Z,662.00
2024-01-25T08:30:01.172Z,656.00
2024-01-25T08:31:01.180Z,652.00
2024-01-25T08:32:01.069Z,649.00
2024-01-25T08:33:01.244Z,648.00
2024-01-25T08:34:01.278Z,643.00
2024-01-25T08:35:01.211Z,636.00
2024-01-25T08:36:01.331Z,631.00
2024-01-25T08:37:01.162Z,637.00
2024-01-25T08:38:01.274Z,640.00
2024-01-25T08:39:01.348Z,643.00
2024-01-25T08:40:01.388Z,645.00
2024-01-25T08:41:01.393Z,651.00
2024-01-25T08:42:01.572Z,659.00
2024-01-25T08:43:01.579Z,671.00
2024-01-25T08:44:01.542Z,681.00
2024-01-25T08:45:01.732Z,695.00
2024-01-25T08:46:01.696Z,710.00
2024-01-25T08:47:01.719Z,719.00
2024-01-25T08:48:02.036Z,727.00
2024-01-25T08:49:01.928Z,735.00
2024-01-25T08:50:01.940Z,742.00
2024-01-25T08:51:01.900Z,758.00
2024-01-25T08:52:01.969Z,766.00
2024-01-25T08:53:01.991Z,777.00
2024-01-25T08:54:02.018Z,790.00
2024-01-25T08:55:02.092Z,812.00
2024-01-25T08:56:04.340Z,818.00
2024-01-25T08:57:02.094Z,817.00
2024-01-25T08:58:02.196Z,824.00
2024-01-25T08:59:02.072Z,828.00
2024-01-25T09:00:02.150Z,832.00
2024-01-25T09:01:02.223Z,866.00
2024-01-25T09:02:02.233Z,888.00
2024-01-25T09:03:02.107Z,894.00
2024-01-25T09:04:02.264Z,985.00
2024-01-25T09:05:02.247Z,956.00
2024-01-25T09:06:02.373Z,952.00
2024-01-25T09:07:02.348Z,950.00
2024-01-25T09:08:02.346Z,945.00
2024-01-25T09:09:02.118Z,940.00
2024-01-25T09:10:02.165Z,940.00
2024-01-25T09:11:02.113Z,937.00
2024-01-25T09:12:02.103Z,922.00
2024-01-25T09:13:02.150Z,909.00
2024-01-25T09:14:02.115Z,909.00
2024-01-25T09:15:02.109Z,902.00
2024-01-25T09:16:02.211Z,904.00
2024-01-25T09:17:02.107Z,910.00
2024-01-25T09:18:02.231Z,918.00
2024-01-25T09:19:02.314Z,917.00
2024-01-25T09:20:02.818Z,915.00
2024-01-25T09:21:02.197Z,916.00
2024-01-25T09:22:02.188Z,917.00
2024-01-25T09:23:09.550Z,919.00
2024-01-25T09:24:09.532Z,908.00
2024-01-25T09:25:10.150Z,912.00
2024-01-25T09:26:09.541Z,913.00
2024-01-25T09:27:09.518Z,911.00
2024-01-25T09:28:09.622Z,907.00
2024-01-25T09:29:09.544Z,924.00
2024-01-25T09:30:09.515Z,921.00
2024-01-25T09:31:09.581Z,916.00
2024-01-25T09:32:09.541Z,916.00
2024-01-25T09:33:09.638Z,916.00
2024-01-25T09:34:09.723Z,914.00
2024-01-25T09:35:09.692Z,719.00
2024-01-25T09:36:09.652Z,675.00
2024-01-25T09:37:09.625Z,622.00
2024-01-25T09:38:09.571Z,600.00
2024-01-25T09:39:09.569Z,601.00
2024-01-25T09:40:09.649Z,610.00
2024-01-25T09:41:09.622Z,623.00
2024-01-25T09:42:09.665Z,682.00
2024-01-25T09:43:09.781Z,691.00
2024-01-25T09:44:09.741Z,698.00
2024-01-25T09:45:09.794Z,823.00
2024-01-25T09:46:09.872Z,808.00
2024-01-25T09:47:09.888Z,812.00
2024-01-25T09:48:12.914Z,818.00
2024-01-25T09:49:10.038Z,831.00
2024-01-25T09:50:09.982Z,850.00
2024-01-25T09:51:09.903Z,862.00
2024-01-25T09:52:09.927Z,873.00
2024-01-25T09:53:09.872Z,904.00
2024-01-25T09:54:09.874Z,899.00
2024-01-25T09:55:09.953Z,905.00
2024-01-25T09:56:09.882Z,908.00
2024-01-25T09:57:09.890Z,910.00
2024-01-25T09:58:10.081Z,926.00
2024-01-25T09:59:09.899Z,937.00
2024-01-25T10:00:09.882Z,941.00
2024-01-25T10:01:09.929Z,946.00
2024-01-25T10:02:10.027Z,960.00
2024-01-25T10:03:09.899Z,978.00
2024-01-25T10:04:10.195Z,987.00
2024-01-25T10:05:10.073Z,994.00
2024-01-25T10:06:10.081Z,1053.00
2024-01-25T10:07:10.078Z,1068.00
2024-01-25T10:08:10.075Z,1082.00
2024-01-25T10:09:09.893Z,1101.00
2024-01-25T10:10:09.994Z,1104.00
2024-01-25T10:11:09.909Z,1113.00
2024-01-25T10:12:17.198Z,1118.00
2024-01-25T10:13:10.904Z,1135.00
2024-01-25T10:14:09.910Z,1151.00
2024-01-25T10:15:09.907Z,1153.00
2024-01-25T10:16:09.930Z,1154.00
2024-01-25T10:17:09.974Z,1174.00
2024-01-25T10:19:10.226Z,1211.00
2024-01-25T10:20:10.059Z,1306.00
2024-01-25T10:21:10.038Z,1285.00
2024-01-25T10:22:10.225Z,1277.00
2024-01-25T10:23:10.015Z,1287.00
2024-01-25T10:24:10.033Z,1298.00
2024-01-25T10:25:10.019Z,1307.00
2024-01-25T10:26:09.885Z,1308.00
2024-01-25T10:27:09.908Z,1117.00
2024-01-25T10:28:10.010Z,1012.00
2024-01-25T10:29:09.997Z,955.00
2024-01-25T10:30:09.922Z,924.00
2024-01-25T10:31:10.057Z,834.00
2024-01-25T10:32:09.870Z,807.00
2024-01-25T10:33:09.933Z,796.00
2024-01-25T10:34:09.986Z,777.00
2024-01-25T10:35:10.164Z,728.00
2024-01-25T10:36:09.946Z,727.00
2024-01-25T10:37:10.080Z,727.00
2024-01-25T10:38:09.941Z,718.00
2024-01-25T10:39:09.924Z,698.00
2024-01-25T10:40:09.963Z,699.00
2024-01-25T10:41:09.906Z,709.00
2024-01-25T10:42:09.914Z,710.00
2024-01-25T10:43:09.918Z,680.00
2024-01-25T10:44:09.921Z,676.00
2024-01-25T10:45:09.973Z,693.00
2024-01-25T10:46:09.935Z,701.00
2024-01-25T10:47:09.898Z,691.00
2024-01-25T10:48:10.008Z,668.00
2024-01-25T10:49:10.167Z,669.00
2024-01-25T10:50:10.034Z,673.00
2024-01-25T10:51:09.936Z,675.00
2024-01-25T10:52:09.925Z,667.00
2024-01-25T10:53:09.915Z,665.00
2024-01-25T10:54:09.916Z,668.00
2024-01-25T10:55:10.038Z,686.00
2024-01-25T10:56:09.932Z,705.00
2024-01-25T10:57:09.942Z,709.00
2024-01-25T10:58:10.037Z,740.00
2024-01-25T10:59:09.892Z,786.00
2024-01-25T11:00:09.934Z,792.00
2024-01-25T11:01:10.710Z,803.00
2024-01-25T11:02:10.040Z,828.00
2024-01-25T11:03:10.006Z,844.00
2024-01-25T11:04:10.011Z,854.00
2024-01-25T11:05:10.139Z,860.00
2024-01-25T11:06:10.037Z,865.00
2024-01-25T11:07:10.146Z,875.00
2024-01-25T11:08:09.970Z,876.00
2024-01-25T11:09:09.923Z,882.00
2024-01-25T11:10:10.016Z,887.00
2024-01-25T11:11:09.991Z,910.00
2024-01-25T11:12:09.966Z,924.00
2024-01-25T11:13:09.987Z,940.00
2024-01-25T11:14:09.924Z,950.00
2024-01-25T11:15:09.956Z,962.00
2024-01-25T11:16:10.156Z,972.00
2024-01-25T11:17:10.051Z,974.00
2024-01-25T11:18:10.324Z,977.00
2024-01-25T11:19:10.381Z,980.00
2024-01-25T11:20:10.397Z,983.00
2024-01-25T11:21:10.339Z,981.00
2024-01-25T11:22:10.454Z,986.00
2024-01-25T11:23:10.509Z,995.00
2024-01-25T11:24:10.509Z,996.00
2024-01-25T11:25:10.686Z,1022.00
2024-01-25T11:26:10.839Z,1033.00
2024-01-25T11:27:10.739Z,1053.00
2024-01-25T11:28:10.906Z,1094.00
2024-01-25T11:29:10.789Z,1092.00
2024-01-25T11:30:10.830Z,1069.00
2024-01-25T11:31:10.851Z,1048.00
2024-01-25T11:32:10.848Z,1014.00
2024-01-25T11:33:10.952Z,963.00
2024-01-25T11:34:10.953Z,933.00
2024-01-25T11:35:11.191Z,888.00
2024-01-25T11:36:10.913Z,858.00
2024-01-25T11:37:10.881Z,841.00
2024-01-25T11:38:10.869Z,822.00
2024-01-25T11:39:10.920Z,865.00
2024-01-25T11:40:10.942Z,877.00
2024-01-25T11:41:10.925Z,915.00
2024-01-25T11:42:10.948Z,967.00
2024-01-25T11:43:11.027Z,985.00
2024-01-25T11:44:10.959Z,1020.00
2024-01-25T11:45:11.006Z,1032.00
2024-01-25T11:46:11.232Z,1036.00
2024-01-25T11:47:10.962Z,1033.00
2024-01-25T11:48:11.124Z,1033.00
2024-01-25T11:49:11.245Z,1031.00
2024-01-25T11:50:11.127Z,1028.00
2024-01-25T11:51:11.087Z,1023.00
2024-01-25T11:52:11.165Z,1016.00
2024-01-25T11:53:11.089Z,1012.00
2024-01-25T11:54:11.114Z,1004.00
2024-01-25T11:55:11.235Z,998.00
2024-01-25T11:56:11.118Z,991.00
2024-01-25T11:57:11.141Z,990.00
2024-01-25T11:58:11.139Z,991.00
2024-01-25T11:59:11.148Z,991.00
2024-01-25T12:00:11.149Z,992.00
2024-01-25T12:01:11.301Z,996.00
2024-01-25T12:02:11.311Z,996.00
2024-01-25T12:03:11.174Z,997.00
2024-01-25T12:04:11.363Z,1000.00
2024-01-25T12:05:11.503Z,999.00
2024-01-25T12:06:11.539Z,1000.00
2024-01-25T12:07:11.334Z,998.00
2024-01-25T12:08:11.293Z,997.00
2024-01-25T12:09:11.227Z,993.00
2024-01-25T12:10:11.383Z,991.00
2024-01-25T12:11:11.281Z,989.00
2024-01-25T12:12:11.247Z,988.00
2024-01-25T12:13:11.360Z,986.00
2024-01-25T12:14:11.370Z,985.00
2024-01-25T12:15:11.306Z,986.00
2024-01-25T12:16:11.534Z,987.00
2024-01-25T12:17:11.346Z,987.00
2024-01-25T12:18:11.529Z,988.00
2024-01-25T12:19:11.479Z,988.00
2024-01-25T12:20:11.706Z,988.00
2024-01-25T12:21:11.439Z,990.00
2024-01-25T12:22:11.470Z,991.00
2024-01-25T12:23:11.426Z,991.00
2024-01-25T12:24:11.442Z,989.00
2024-01-25T12:25:11.846Z,989.00
2024-01-25T12:26:11.617Z,989.00
2024-01-25T12:27:11.457Z,991.00
2024-01-25T12:28:11.621Z,990.00
2024-01-25T12:29:11.470Z,991.00
2024-01-25T12:30:11.468Z,989.00
2024-01-25T12:31:11.526Z,989.00
2024-01-25T12:32:34.092Z,991.00
2024-01-25T12:33:11.601Z,989.00
2024-01-25T12:34:11.666Z,989.00
2024-01-25T12:35:11.592Z,990.00
2024-01-25T12:36:11.716Z,988.00
2024-01-25T12:37:11.611Z,982.00
2024-01-25T12:38:11.546Z,983.00
2024-01-25T12:39:11.540Z,981.00
2024-01-25T12:40:11.572Z,981.00
2024-01-25T12:41:11.572Z,982.00
2024-01-25T12:42:11.575Z,983.00
2024-01-25T12:43:11.603Z,981.00
2024-01-25T12:44:11.534Z,980.00
2024-01-25T12:45:11.563Z,980.00
2024-01-25T12:46:21.946Z,976.00
2024-01-25T12:47:12.611Z,972.00
2024-01-25T12:48:11.631Z,972.00
2024-01-25T12:49:11.664Z,971.00
2024-01-25T12:50:11.567Z,967.00
2024-01-25T12:51:11.598Z,965.00
2024-01-25T12:52:11.576Z,966.00
2024-01-25T12:53:11.525Z,964.00
2024-01-25T12:54:11.609Z,963.00
2024-01-25T12:55:11.613Z,962.00
2024-01-25T12:56:11.588Z,964.00
2024-01-25T12:57:11.578Z,965.00
2024-01-25T12:58:11.551Z,966.00
2024-01-25T12:59:11.564Z,965.00
2024-01-25T13:00:11.674Z,964.00
2024-01-25T13:01:11.784Z,966.00
2024-01-25T13:02:11.592Z,966.00
2024-01-25T13:03:11.583Z,964.00
2024-01-25T13:04:11.727Z,964.00
2024-01-25T13:05:11.610Z,817.00
2024-01-25T13:06:11.608Z,729.00
2024-01-25T13:07:11.577Z,746.00
2024-01-25T13:08:11.593Z,746.00
2024-01-25T13:09:11.579Z,745.00
2024-01-25T13:10:11.599Z,794.00
2024-01-25T13:11:11.606Z,822.00
2024-01-25T13:12:11.607Z,830.00
2024-01-25T13:13:11.575Z,831.00
2024-01-25T13:14:11.619Z,828.00
2024-01-25T13:15:11.714Z,822.00
2024-01-25T13:16:11.683Z,814.00
2024-01-25T13:17:11.695Z,809.00
2024-01-25T13:18:11.844Z,812.00
2024-01-25T13:19:11.761Z,813.00
2024-01-25T13:20:11.726Z,814.00
2024-01-25T13:21:11.812Z,814.00
2024-01-25T13:22:11.781Z,812.00
2024-01-25T13:23:11.863Z,811.00
2024-01-25T13:24:11.857Z,810.00
2024-01-25T13:25:11.844Z,811.00
2024-01-25T13:26:11.900Z,810.00
2024-01-25T13:27:11.919Z,807.00
2024-01-25T13:28:11.908Z,804.00
2024-01-25T13:29:11.928Z,803.00
2024-01-25T13:30:11.959Z,804.00
2024-01-25T13:31:11.998Z,802.00
2024-01-25T13:32:11.966Z,802.00
2024-01-25T13:33:12.174Z,802.00
2024-01-25T13:34:12.192Z,802.00
2024-01-25T13:35:12.028Z,799.00
2024-01-25T13:36:12.126Z,797.00
2024-01-25T13:37:12.072Z,792.00
2024-01-25T13:38:12.083Z,793.00
2024-01-25T13:39:12.200Z,795.00
2024-01-25T13:40:12.110Z,797.00
2024-01-25T13:41:12.124Z,800.00
2024-01-25T13:42:12.191Z,803.00
2024-01-25T13:43:12.155Z,803.00
2024-01-25T13:44:12.188Z,800.00
2024-01-25T13:45:12.221Z,796.00
2024-01-25T13:46:12.245Z,796.00
2024-01-25T13:47:12.209Z,796.00
2024-01-25T13:48:12.315Z,798.00
2024-01-25T13:49:12.341Z,796.00
2024-01-25T13:50:12.248Z,802.00
2024-01-25T13:51:12.259Z,806.00
2024-01-25T13:52:12.294Z,811.00
2024-01-25T13:53:12.284Z,811.00
2024-01-25T13:54:12.385Z,810.00
2024-01-25T13:55:12.362Z,811.00
2024-01-25T13:56:12.338Z,812.00
2024-01-25T13:57:12.414Z,812.00
2024-01-25T13:58:12.436Z,808.00
2024-01-25T13:59:12.417Z,813.00
2024-01-25T14:00:12.466Z,813.00
2024-01-25T14:01:12.716Z,812.00
2024-01-25T14:02:12.488Z,816.00
2024-01-25T14:03:12.527Z,819.00
2024-01-25T14:04:12.648Z,821.00
2024-01-25T14:05:12.515Z,826.00
2024-01-25T14:06:12.790Z,828.00
2024-01-25T14:07:12.539Z,831.00
2024-01-25T14:08:12.574Z,833.00
2024-01-25T14:09:12.638Z,832.00
2024-01-25T14:10:12.644Z,828.00
2024-01-25T14:11:12.615Z,826.00
2024-01-25T14:12:12.614Z,826.00
2024-01-25T14:13:12.630Z,821.00
2024-01-25T14:14:12.596Z,817.00
2024-01-25T14:15:12.672Z,821.00
2024-01-25T14:16:12.628Z,818.00
2024-01-25T14:17:12.660Z,809.00
2024-01-25T14:18:12.839Z,795.00
2024-01-25T14:19:12.837Z,786.00
2024-01-25T14:20:12.732Z,774.00
2024-01-25T14:21:14.007Z,768.00
2024-01-25T14:22:22.603Z,761.00
2024-01-25T14:23:13.767Z,753.00
2024-01-25T14:24:12.813Z,744.00
2024-01-25T14:25:12.780Z,737.00
2024-01-25T14:26:12.784Z,735.00
2024-01-25T14:27:12.840Z,730.00
2024-01-25T14:28:12.782Z,724.00
2024-01-25T14:29:12.807Z,717.00
2024-01-25T14:30:12.860Z,710.00
2024-01-25T14:31:12.776Z,706.00
2024-01-25T14:32:12.802Z,701.00
2024-01-25T14:33:12.977Z,694.00
2024-01-25T14:34:12.913Z,687.00
2024-01-25T14:35:12.962Z,682.00
2024-01-25T14:36:12.836Z,681.00
2024-01-25T14:37:12.814Z,675.00
2024-01-25T14:38:12.823Z,670.00
2024-01-25T14:39:12.803Z,664.00
2024-01-25T14:41:12.861Z,657.00
2024-01-25T14:42:12.867Z,661.00
2024-01-25T14:43:12.830Z,660.00
2024-01-25T14:44:12.807Z,649.00
2024-01-25T14:45:12.869Z,644.00
2024-01-25T14:46:12.837Z,645.00
2024-01-25T14:47:12.831Z,647.00
2024-01-25T14:48:12.964Z,642.00
2024-01-25T14:49:12.960Z,641.00
2024-01-25T14:50:13.000Z,642.00
2024-01-25T14:51:12.919Z,645.00
2024-01-25T14:52:12.910Z,650.00
2024-01-25T14:53:12.977Z,650.00
2024-01-25T14:54:13.090Z,646.00
2024-01-25T14:55:13.117Z,645.00
2024-01-25T14:56:13.038Z,643.00
2024-01-25T14:57:13.165Z,644.00
2024-01-25T14:58:13.105Z,641.00
2024-01-25T14:59:13.193Z,637.00
2024-01-25T15:00:13.204Z,631.00
2024-01-25T15:01:13.278Z,628.00
2024-01-25T15:02:13.217Z,624.00
2024-01-25T15:03:13.324Z,624.00
2024-01-25T15:04:13.288Z,627.00
2024-01-25T15:05:13.292Z,634.00
2024-01-25T15:06:13.374Z,639.00
2024-01-25T15:07:13.356Z,640.00
2024-01-25T15:08:13.327Z,640.00
2024-01-25T15:09:13.363Z,639.00
2024-01-25T15:10:13.423Z,636.00
2024-01-25T15:11:13.383Z,635.00
2024-01-25T15:12:13.459Z,636.00
2024-01-25T15:13:13.394Z,635.00
2024-01-25T15:14:13.414Z,635.00
2024-01-25T15:15:13.420Z,637.00
2024-01-25T15:16:13.438Z,638.00
2024-01-25T15:17:13.432Z,638.00
2024-01-25T15:18:13.571Z,637.00
2024-01-25T15:19:13.518Z,638.00
2024-01-25T15:20:13.523Z,637.00
2024-01-25T15:21:13.555Z,637.00
2024-01-25T15:22:13.597Z,637.00
2024-01-25T15:23:13.570Z,636.00
2024-01-25T15:24:13.627Z,637.00
2024-01-25T15:25:13.560Z,637.00
2024-01-25T15:26:13.608Z,636.00
2024-01-25T15:27:13.626Z,639.00
2024-01-25T15:28:14.053Z,638.00
2024-01-25T15:29:13.629Z,638.00
2024-01-25T15:30:13.680Z,640.00
2024-01-25T15:31:13.792Z,641.00
2024-01-25T15:32:13.667Z,642.00
2024-01-25T15:33:13.748Z,642.00
2024-01-25T15:34:13.863Z,644.00
2024-01-25T15:35:13.743Z,644.00
2024-01-25T15:36:13.800Z,644.00
2024-01-25T15:37:13.778Z,645.00
2024-01-25T15:38:13.759Z,643.00
2024-01-25T15:39:13.808Z,644.00
2024-01-25T15:40:14.002Z,643.00
2024-01-25T15:41:13.801Z,641.00
2024-01-25T15:42:13.886Z,643.00
2024-01-25T15:43:13.848Z,645.00
2024-01-25T15:44:13.856Z,646.00
2024-01-25T15:45:13.897Z,646.00
2024-01-25T15:46:14.445Z,646.00
2024-01-25T15:47:13.869Z,648.00
2024-01-25T15:48:14.086Z,647.00
2024-01-25T15:49:13.894Z,646.00
2024-01-25T15:50:13.928Z,646.00
2024-01-25T15:51:14.107Z,646.00
2024-01-25T15:52:14.903Z,646.00
2024-01-25T15:53:13.976Z,646.00
2024-01-25T15:54:13.989Z,649.00
2024-01-25T15:55:13.982Z,648.00
2024-01-25T15:56:13.982Z,647.00
2024-01-25T15:57:14.032Z,647.00
2024-01-25T15:58:14.066Z,645.00
2024-01-25T15:59:14.048Z,646.00
2024-01-25T16:00:14.104Z,646.00
2024-01-25T16:01:14.181Z,646.00
2024-01-25T16:02:14.079Z,646.00
2024-01-25T16:03:14.117Z,644.00
2024-01-25T16:04:14.179Z,644.00
2024-01-25T16:05:14.142Z,645.00
2024-01-25T16:06:14.179Z,642.00
2024-01-25T16:07:14.130Z,641.00
2024-01-25T16:08:14.172Z,644.00
2024-01-25T16:09:14.363Z,646.00
2024-01-25T16:10:14.217Z,646.00
2024-01-25T16:11:14.241Z,646.00
2024-01-25T16:12:14.324Z,648.00
2024-01-25T16:13:14.246Z,649.00
2024-01-25T16:14:36.765Z,651.00
2024-01-25T16:16:41.712Z,651.00
2024-01-25T16:17:41.757Z,653.00
2024-01-25T16:20:51.440Z,649.00
2024-01-25T16:21:28.950Z,649.00
2024-01-25T16:22:28.965Z,649.00
2024-01-25T16:23:29.006Z,647.00
2024-01-25T16:24:28.979Z,646.00
2024-01-25T16:25:28.978Z,646.00
2024-01-25T16:26:28.984Z,648.00
2024-01-25T16:27:29.027Z,648.00
2024-01-25T16:28:28.986Z,650.00
2024-01-25T16:29:28.964Z,651.00
2024-01-25T16:30:29.004Z,653.00
2024-01-25T16:31:28.988Z,654.00
2024-01-25T16:32:28.986Z,656.00
2024-01-25T16:33:29.103Z,658.00
2024-01-25T16:34:29.108Z,659.00
2024-01-25T16:35:29.001Z,657.00
2024-01-25T16:36:29.063Z,657.00
2024-01-25T16:37:29.012Z,657.00
2024-01-25T16:38:28.988Z,656.00
2024-01-25T16:39:29.036Z,657.00
2024-01-25T16:40:28.961Z,655.00
2024-01-25T16:41:29.067Z,655.00
2024-01-25T16:42:29.062Z,655.00
2024-01-25T16:43:29.005Z,655.00
2024-01-25T16:44:28.997Z,655.00
2024-01-25T16:45:29.123Z,656.00
2024-01-25T16:46:28.997Z,655.00
2024-01-25T16:47:28.968Z,654.00
2024-01-25T16:48:29.106Z,653.00
2024-01-25T16:49:29.202Z,651.00
2024-01-25T16:50:29.066Z,652.00
2024-01-25T16:51:29.073Z,651.00
2024-01-25T16:52:29.019Z,651.00
2024-01-25T16:53:29.038Z,652.00
2024-01-25T16:54:29.117Z,652.00
2024-01-25T16:55:28.994Z,652.00
2024-01-25T16:56:29.000Z,654.00
2024-01-25T16:57:29.053Z,653.00
2024-01-25T16:58:29.000Z,654.00
2024-01-25T16:59:28.999Z,652.00
2024-01-25T17:00:29.059Z,652.00
2024-01-25T17:01:29.183Z,649.00
2024-01-25T17:02:28.999Z,649.00
2024-01-25T17:03:29.114Z,648.00
2024-01-25T17:04:29.088Z,648.00
2024-01-25T17:05:29.008Z,650.00
2024-01-25T17:06:29.234Z,651.00
2024-01-25T17:07:29.096Z,650.00
2024-01-25T17:08:29.156Z,648.00
2024-01-25T17:09:29.042Z,649.00
2024-01-25T17:10:29.034Z,648.00
2024-01-25T17:11:29.026Z,649.00
2024-01-25T17:12:29.067Z,648.00
2024-01-25T17:13:29.075Z,649.00
2024-01-25T17:14:29.055Z,648.00
2024-01-25T17:15:29.100Z,650.00
2024-01-25T17:16:29.066Z,650.00
2024-01-25T17:17:29.109Z,653.00
2024-01-25T17:18:29.278Z,654.00
2024-01-25T17:19:29.208Z,653.00
2024-01-25T17:20:29.120Z,650.00
2024-01-25T17:21:29.205Z,650.00
2024-01-25T17:22:29.188Z,649.00
2024-01-25T17:23:29.202Z,653.00
2024-01-25T17:24:29.256Z,655.00
2024-01-25T17:25:29.230Z,655.00
2024-01-25T17:26:29.248Z,655.00
2024-01-25T17:27:29.274Z,652.00
2024-01-25T17:28:29.271Z,652.00
2024-01-25T17:29:29.281Z,651.00
2024-01-25T17:30:29.307Z,653.00
2024-01-25T17:31:29.341Z,657.00
2024-01-25T17:32:29.374Z,657.00
2024-01-25T17:33:29.480Z,657.00
2024-01-25T17:34:29.492Z,657.00
2024-01-25T17:35:29.378Z,656.00
2024-01-25T17:36:29.479Z,657.00
2024-01-25T17:37:29.415Z,657.00
2024-01-25T17:38:29.436Z,657.00
2024-01-25T17:39:29.489Z,657.00
2024-01-25T17:40:29.456Z,657.00
2024-01-25T17:41:29.464Z,656.00
2024-01-25T17:42:29.500Z,656.00
2024-01-25T17:43:29.542Z,655.00
2024-01-25T17:44:29.534Z,655.00
2024-01-25T17:45:29.546Z,654.00
2024-01-25T17:46:29.645Z,655.00
2024-01-25T17:47:29.553Z,655.00
2024-01-25T17:48:29.829Z,657.00
2024-01-25T17:49:29.746Z,657.00
2024-01-25T17:50:29.606Z,659.00
2024-01-25T17:51:29.651Z,657.00
2024-01-25T17:52:29.616Z,654.00
2024-01-25T17:53:29.601Z,653.00
2024-01-25T17:54:29.653Z,654.00
2024-01-25T17:55:29.675Z,654.00
2024-01-25T17:56:29.627Z,655.00
2024-01-25T17:57:29.679Z,654.00
2024-01-25T17:58:29.669Z,656.00
2024-01-25T17:59:29.695Z,655.00
2024-01-25T18:00:29.720Z,652.00
